Time;durP1;ratioP1;P1;durP2;ratioP2;P2;SDS_P1;SDS_P2;PMS_P1;PMS_P2;Temp;Humidity;BMP_temperature;BMP_pressure;BME280_temperature;BME280_humidity;BME280_pressure;Samples;Min_cycle;Max_cycle;Signal;HPM_P1;HPM_P2
2021/11/29 00:02:04;;;;;;;17.47;12.10;;;1.70;99.90;;;;;;5138589;28;20451;-80
2021/11/29 00:04:33;;;;;;;24.83;13.10;;;1.70;99.90;;;;;;5120390;28;20400;-81
2021/11/29 00:06:59;;;;;;;17.27;11.40;;;1.60;99.90;;;;;;5126400;28;20400;-80
2021/11/29 00:09:25;;;;;;;19.33;12.80;;;1.50;99.90;;;;;;5125199;28;20439;-80
2021/11/29 00:11:51;;;;;;;15.07;12.10;;;1.50;99.90;;;;;;5124880;28;20167;-81
2021/11/29 00:14:16;;;;;;;15.73;9.33;;;1.40;99.90;;;;;;5126098;28;20219;-81
2021/11/29 00:16:42;;;;;;;15.10;10.20;;;1.40;99.90;;;;;;5129219;28;20166;-80
2021/11/29 00:19:08;;;;;;;21.33;13.67;;;1.50;99.90;;;;;;5111323;28;20158;-79
2021/11/29 00:21:35;;;;;;;14.17;10.77;;;1.50;99.90;;;;;;5130080;28;20193;-81
2021/11/29 00:24:02;;;;;;;13.77;11.10;;;1.60;99.90;;;;;;5111764;28;20178;-80
2021/11/29 00:26:28;;;;;;;20.57;13.43;;;1.70;99.90;;;;;;5139690;28;20415;-81
2021/11/29 00:28:55;;;;;;;20.83;12.40;;;1.90;99.90;;;;;;5119453;28;20492;-82
2021/11/29 00:31:21;;;;;;;13.33;11.50;;;2.10;99.90;;;;;;5113097;28;20392;-81
2021/11/29 00:33:47;;;;;;;19.00;10.50;;;2.20;99.90;;;;;;5130372;28;20467;-82
2021/11/29 00:36:15;;;;;;;24.20;13.40;;;2.40;99.90;;;;;;5130639;28;20423;-81
2021/11/29 00:38:41;;;;;;;21.07;14.43;;;2.50;99.90;;;;;;5130314;28;20370;-82
2021/11/29 00:41:08;;;;;;;21.00;15.10;;;2.40;99.90;;;;;;5129436;28;20698;-82
2021/11/29 00:43:34;;;;;;;20.60;14.80;;;2.40;99.90;;;;;;5129831;28;20392;-81
2021/11/29 00:46:00;;;;;;;17.27;11.13;;;2.40;99.90;;;;;;5129606;28;20463;-79
2021/11/29 00:48:25;;;;;;;20.47;11.43;;;2.40;99.90;;;;;;5129105;28;20449;-81
2021/11/29 00:50:52;;;;;;;19.90;13.20;;;2.60;99.90;;;;;;5129966;28;20158;-82
2021/11/29 00:53:18;;;;;;;21.50;11.27;;;2.40;99.90;;;;;;5128924;28;20197;-81
2021/11/29 00:55:44;;;;;;;20.77;12.77;;;2.50;99.90;;;;;;5129325;28;20363;-81
2021/11/29 00:58:10;;;;;;;13.53;9.00;;;2.70;99.90;;;;;;5128912;28;20161;-81
2021/11/29 01:00:37;;;;;;;15.93;11.00;;;2.90;99.90;;;;;;5129275;28;20498;-81
2021/11/29 01:03:03;;;;;;;21.50;12.27;;;2.40;99.90;;;;;;5110785;28;20389;-81
2021/11/29 01:05:30;;;;;;;14.37;10.03;;;2.20;99.90;;;;;;5129696;28;20434;-81
2021/11/29 01:07:57;;;;;;;16.80;11.03;;;2.20;99.90;;;;;;5130336;28;20448;-81
2021/11/29 01:10:27;;;;;;;15.80;11.37;;;2.10;99.90;;;;;;5129636;28;20404;-81
2021/11/29 01:12:53;;;;;;;22.40;10.17;;;2.10;99.90;;;;;;5130680;28;20447;-81
2021/11/29 01:15:23;;;;;;;22.23;14.77;;;2.40;99.90;;;;;;5130712;28;20875;-81
2021/11/29 01:17:50;;;;;;;17.23;13.30;;;2.30;99.90;;;;;;5130779;28;20384;-81
2021/11/29 01:20:17;;;;;;;20.77;11.17;;;2.30;99.90;;;;;;5113578;28;20415;-79
2021/11/29 01:22:45;;;;;;;17.70;11.87;;;2.30;99.90;;;;;;5130272;28;20439;-81
2021/11/29 01:25:12;;;;;;;21.13;10.67;;;2.30;99.90;;;;;;5129201;28;20379;-82
2021/11/29 01:27:38;;;;;;;19.03;11.53;;;2.30;99.90;;;;;;5111189;28;20389;-82
2021/11/29 01:30:06;;;;;;;14.43;11.70;;;2.30;99.90;;;;;;5111198;28;20431;-82
2021/11/29 01:32:32;;;;;;;21.77;12.93;;;2.30;99.90;;;;;;5128700;28;20451;-81
2021/11/29 01:34:58;;;;;;;13.77;9.43;;;2.20;99.90;;;;;;5133919;28;20392;-81
2021/11/29 01:37:24;;;;;;;15.23;10.80;;;1.90;99.90;;;;;;5137642;28;20409;-82
2021/11/29 01:39:50;;;;;;;19.20;12.63;;;1.90;99.90;;;;;;5135885;28;20551;-81
2021/11/29 01:42:16;;;;;;;13.80;10.70;;;1.90;99.90;;;;;;5136118;28;20270;-82
2021/11/29 01:44:43;;;;;;;17.43;11.27;;;2.00;99.90;;;;;;5136591;28;20458;-81
2021/11/29 01:47:09;;;;;;;19.20;11.80;;;2.00;99.90;;;;;;5135696;28;20182;-81
2021/11/29 01:49:35;;;;;;;17.27;11.60;;;1.90;99.90;;;;;;5130189;28;20400;-82
2021/11/29 01:52:01;;;;;;;15.97;11.57;;;1.90;99.90;;;;;;5130769;28;20162;-81
2021/11/29 01:54:27;;;;;;;16.30;10.27;;;1.90;99.90;;;;;;5130059;28;20191;-81
2021/11/29 01:56:53;;;;;;;27.70;11.40;;;1.90;99.90;;;;;;5129287;28;20401;-81
2021/11/29 01:59:19;;;;;;;14.53;10.43;;;2.10;99.90;;;;;;5129914;28;20729;-81
2021/11/29 02:01:45;;;;;;;23.07;12.50;;;2.10;99.90;;;;;;5129460;28;20394;-81
2021/11/29 02:04:12;;;;;;;19.77;13.50;;;2.00;99.90;;;;;;5128679;28;20386;-81
2021/11/29 02:06:40;;;;;;;12.70;10.27;;;1.90;99.90;;;;;;5129191;28;20383;-81
2021/11/29 02:09:08;;;;;;;19.57;14.27;;;1.70;99.90;;;;;;5128557;28;20378;-81
2021/11/29 02:11:36;;;;;;;19.37;12.00;;;1.60;99.90;;;;;;5129139;28;20367;-81
2021/11/29 02:14:03;;;;;;;15.23;8.10;;;1.70;99.90;;;;;;5129060;28;20451;-81
2021/11/29 02:16:31;;;;;;;16.00;10.47;;;1.70;99.90;;;;;;5111022;28;20477;-81
2021/11/29 02:18:57;;;;;;;17.87;13.20;;;1.70;99.90;;;;;;5127298;28;20393;-81
2021/11/29 02:21:26;;;;;;;20.03;12.83;;;1.80;99.90;;;;;;5109992;28;20421;-80
2021/11/29 02:23:55;;;;;;;14.33;10.83;;;1.80;99.90;;;;;;5127650;28;20412;-81
2021/11/29 02:26:25;;;;;;;20.83;12.50;;;1.80;99.90;;;;;;5127712;28;20367;-81
2021/11/29 02:28:56;;;;;;;17.13;13.60;;;1.80;99.90;;;;;;5127895;28;20796;-81
2021/11/29 02:31:26;;;;;;;20.60;13.40;;;2.00;99.90;;;;;;5127270;28;20427;-80
2021/11/29 02:33:52;;;;;;;20.97;12.70;;;2.30;99.90;;;;;;5126290;28;20471;-81
2021/11/29 02:36:18;;;;;;;15.70;12.13;;;2.50;99.90;;;;;;5126955;28;20371;-81
2021/11/29 02:38:44;;;;;;;18.30;13.27;;;2.70;99.90;;;;;;5125891;28;20541;-80
2021/11/29 02:41:10;;;;;;;23.00;12.63;;;2.90;99.90;;;;;;5127228;28;20218;-81
2021/11/29 02:43:36;;;;;;;17.87;12.47;;;3.00;99.90;;;;;;5127805;28;20508;-80
2021/11/29 02:46:03;;;;;;;18.60;14.33;;;3.10;99.90;;;;;;5127176;28;20404;-81
2021/11/29 02:48:46;;;;;;;16.33;12.67;;;3.20;99.90;;;;;;5126359;28;20496;-81
2021/11/29 02:51:31;;;;;;;17.53;13.53;;;3.20;99.90;;;;;;5127115;28;20396;-81
2021/11/29 02:54:12;;;;;;;20.17;11.47;;;3.20;99.90;;;;;;5126583;28;20430;-80
2021/11/29 02:56:41;;;;;;;17.13;10.70;;;3.30;99.90;;;;;;5126919;28;20426;-81
2021/11/29 02:59:10;;;;;;;14.10;10.10;;;3.20;99.90;;;;;;5126912;28;20395;-80
2021/11/29 03:01:37;;;;;;;13.67;11.43;;;3.10;99.90;;;;;;5108870;28;20381;-80
2021/11/29 03:04:03;;;;;;;21.97;9.87;;;3.10;99.90;;;;;;5126165;28;20399;-81
2021/11/29 03:06:29;;;;;;;19.90;10.90;;;3.00;99.90;;;;;;5129043;28;20394;-81
2021/11/29 03:08:55;;;;;;;15.40;10.63;;;3.10;99.90;;;;;;5110937;28;20400;-80
2021/11/29 03:11:21;;;;;;;14.93;10.53;;;2.90;99.90;;;;;;5128706;28;20366;-80
2021/11/29 03:13:48;;;;;;;17.83;11.50;;;2.80;99.90;;;;;;5128427;28;20201;-81
2021/11/29 03:16:15;;;;;;;18.40;11.23;;;3.00;99.90;;;;;;5128016;28;20322;-80
2021/11/29 03:18:43;;;;;;;18.90;13.80;;;3.00;99.90;;;;;;5127908;28;20458;-80
2021/11/29 03:21:10;;;;;;;16.80;11.10;;;3.10;99.90;;;;;;5128694;28;20522;-80
2021/11/29 03:23:37;;;;;;;18.17;10.57;;;3.30;99.90;;;;;;5127592;28;20396;-80
2021/11/29 03:26:14;;;;;;;16.13;11.40;;;3.30;99.90;;;;;;5127934;28;20400;-80
2021/11/29 03:28:41;;;;;;;21.27;11.03;;;3.30;99.90;;;;;;5127543;28;20398;-79
2021/11/29 03:31:09;;;;;;;13.73;9.00;;;3.20;99.90;;;;;;5127631;28;20370;-80
2021/11/29 03:33:36;;;;;;;12.83;9.60;;;3.30;99.90;;;;;;5126391;28;20475;-80
2021/11/29 03:36:03;;;;;;;16.63;11.10;;;3.40;99.90;;;;;;5127309;28;20413;-81
2021/11/29 03:38:29;;;;;;;16.83;9.63;;;3.40;99.90;;;;;;5126721;28;20434;-79
2021/11/29 03:40:56;;;;;;;14.83;9.53;;;3.10;99.90;;;;;;5109514;28;20404;-79
2021/11/29 03:43:22;;;;;;;16.03;9.97;;;3.20;99.90;;;;;;5108106;28;20404;-80
2021/11/29 03:45:48;;;;;;;11.20;9.20;;;3.30;99.90;;;;;;5127000;28;20467;-80
2021/11/29 03:48:14;;;;;;;14.70;10.80;;;3.40;99.90;;;;;;5126139;28;20399;-81
2021/11/29 03:50:40;;;;;;;14.03;9.33;;;3.50;99.90;;;;;;5130492;28;20421;-79
2021/11/29 03:53:06;;;;;;;18.90;11.20;;;3.60;99.90;;;;;;5131126;28;20194;-80
2021/11/29 03:55:32;;;;;;;15.50;11.53;;;3.60;99.90;;;;;;5131444;28;20211;-80
2021/11/29 03:57:58;;;;;;;14.80;10.20;;;3.60;99.90;;;;;;5130992;28;20157;-79
2021/11/29 04:00:24;;;;;;;14.23;11.20;;;3.50;99.90;;;;;;5131178;28;20410;-80
2021/11/29 04:02:50;;;;;;;14.33;8.87;;;3.50;99.90;;;;;;5131304;28;20166;-80
2021/11/29 04:05:16;;;;;;;13.03;8.93;;;3.50;99.90;;;;;;5131040;28;20437;-80
2021/11/29 04:07:42;;;;;;;13.70;9.87;;;3.30;99.90;;;;;;5130946;28;20406;-80
2021/11/29 04:10:09;;;;;;;15.93;9.70;;;3.50;99.90;;;;;;5130897;28;20162;-79
2021/11/29 04:12:35;;;;;;;14.63;10.00;;;3.50;99.90;;;;;;5130565;28;20404;-79
2021/11/29 04:15:01;;;;;;;11.77;8.77;;;3.10;99.90;;;;;;5131088;28;20403;-80
2021/11/29 04:17:27;;;;;;;13.90;8.83;;;3.20;99.90;;;;;;5130796;28;20825;-80
2021/11/29 04:19:55;;;;;;;15.53;9.60;;;3.20;99.90;;;;;;5131021;28;20390;-80
2021/11/29 04:22:20;;;;;;;13.57;8.33;;;3.30;99.90;;;;;;5130263;28;20257;-80
2021/11/29 04:24:47;;;;;;;14.20;9.70;;;3.30;99.90;;;;;;5111670;28;20367;-79
2021/11/29 04:27:13;;;;;;;13.03;8.70;;;3.20;99.90;;;;;;5130835;28;20162;-80
2021/11/29 04:29:42;;;;;;;13.50;8.60;;;3.30;99.90;;;;;;5112525;28;20395;-80
2021/11/29 04:32:09;;;;;;;13.40;8.80;;;3.20;99.90;;;;;;5129873;28;20449;-80
2021/11/29 04:34:36;;;;;;;10.83;8.20;;;3.20;99.90;;;;;;5130572;28;20535;-80
2021/11/29 04:37:03;;;;;;;13.90;8.47;;;3.20;99.90;;;;;;5130546;28;20427;-80
2021/11/29 04:39:31;;;;;;;13.63;7.37;;;3.20;99.90;;;;;;5130092;28;20374;-80
2021/11/29 04:41:57;;;;;;;13.03;7.90;;;3.20;99.90;;;;;;5130202;28;20380;-80
2021/11/29 04:44:22;;;;;;;12.10;9.17;;;3.30;99.90;;;;;;5130593;28;20420;-80
2021/11/29 04:46:48;;;;;;;14.00;8.13;;;3.10;99.90;;;;;;5126355;28;20484;-80
2021/11/29 04:49:14;;;;;;;9.87;7.63;;;3.10;99.90;;;;;;5129650;28;20166;-80
2021/11/29 04:51:40;;;;;;;12.30;7.10;;;3.30;99.90;;;;;;5129822;28;20370;-81
2021/11/29 04:54:09;;;;;;;10.13;9.13;;;3.40;99.90;;;;;;5129833;28;20536;-81
2021/11/29 04:56:36;;;;;;;10.97;6.70;;;3.50;99.90;;;;;;5130626;28;20402;-80
2021/11/29 04:59:02;;;;;;;14.83;8.20;;;3.50;99.90;;;;;;5129864;28;20906;-80
2021/11/29 05:01:28;;;;;;;11.17;7.07;;;3.50;99.90;;;;;;5129026;28;20391;-80
2021/11/29 05:03:54;;;;;;;9.40;7.83;;;3.60;99.90;;;;;;5130096;28;20399;-80
2021/11/29 05:06:20;;;;;;;10.63;7.77;;;3.60;99.90;;;;;;5129655;28;20374;-80
2021/11/29 05:08:46;;;;;;;8.60;7.07;;;3.60;99.90;;;;;;5129663;28;20191;-81
2021/11/29 05:11:12;;;;;;;7.10;6.40;;;3.50;99.90;;;;;;5129905;28;20367;-81
2021/11/29 05:13:38;;;;;;;12.70;7.77;;;3.50;99.90;;;;;;5111115;28;20486;-78
2021/11/29 05:16:04;;;;;;;11.97;7.30;;;3.50;99.90;;;;;;5110840;28;20394;-80
2021/11/29 05:18:30;;;;;;;10.40;6.60;;;3.50;99.90;;;;;;5111553;28;20378;-78
2021/11/29 05:20:57;;;;;;;9.20;8.03;;;3.40;99.90;;;;;;5129636;28;20404;-80
2021/11/29 05:23:23;;;;;;;14.10;8.00;;;3.40;99.90;;;;;;5129766;28;20463;-80
2021/11/29 05:25:48;;;;;;;10.47;7.30;;;3.40;99.90;;;;;;5133660;28;20391;-80
2021/11/29 05:28:15;;;;;;;9.83;7.30;;;3.40;99.90;;;;;;5140576;28;20982;-80
2021/11/29 05:30:41;;;;;;;11.90;7.50;;;3.50;99.90;;;;;;5133364;28;20270;-81
2021/11/29 05:33:07;;;;;;;14.87;9.00;;;3.40;99.90;;;;;;5132167;28;20494;-80
2021/11/29 05:35:33;;;;;;;14.30;8.27;;;3.50;99.90;;;;;;5131729;28;20480;-81
2021/11/29 05:38:00;;;;;;;8.90;6.70;;;3.50;99.90;;;;;;5131632;28;20215;-80
2021/11/29 05:40:26;;;;;;;14.97;8.33;;;3.40;99.90;;;;;;5130771;28;20418;-81
2021/11/29 05:42:52;;;;;;;13.53;8.50;;;3.40;99.90;;;;;;5130201;28;20371;-81
2021/11/29 05:45:18;;;;;;;11.80;8.07;;;3.40;99.90;;;;;;5117981;28;20412;-81
2021/11/29 05:47:44;;;;;;;16.43;8.73;;;3.30;99.90;;;;;;5110089;28;20181;-81
2021/11/29 05:50:13;;;;;;;14.57;9.10;;;3.30;99.90;;;;;;5108974;28;20379;-80
2021/11/29 05:52:39;;;;;;;11.87;8.73;;;3.40;99.90;;;;;;5109406;28;20173;-80
2021/11/29 05:55:08;;;;;;;11.40;8.13;;;3.40;99.90;;;;;;5109297;28;20405;-81
2021/11/29 05:57:34;;;;;;;15.83;8.70;;;3.50;99.90;;;;;;5109538;28;20379;-80
2021/11/29 06:00:00;;;;;;;10.00;7.73;;;3.50;99.90;;;;;;5109672;28;20816;-80
2021/11/29 06:02:26;;;;;;;10.37;7.03;;;3.60;99.90;;;;;;5109657;28;20380;-81
2021/11/29 06:04:52;;;;;;;11.67;7.70;;;3.60;99.90;;;;;;5109780;28;20443;-80
2021/11/29 06:07:18;;;;;;;7.30;6.03;;;3.60;99.90;;;;;;5109096;28;20442;-80
2021/11/29 06:09:44;;;;;;;11.47;7.97;;;3.40;99.90;;;;;;5109752;28;20492;-79
2021/11/29 06:12:10;;;;;;;10.97;8.47;;;3.30;99.90;;;;;;5108842;28;20403;-80
2021/11/29 06:14:36;;;;;;;10.10;6.67;;;3.40;99.90;;;;;;5109565;28;20597;-81
2021/11/29 06:17:02;;;;;;;11.67;6.83;;;3.50;99.90;;;;;;5109673;28;20159;-80
2021/11/29 06:19:28;;;;;;;21.13;9.67;;;3.30;99.90;;;;;;5108867;28;20412;-81
2021/11/29 06:21:54;;;;;;;10.83;7.57;;;3.40;99.90;;;;;;5090257;28;20407;-80
2021/11/29 06:24:19;;;;;;;11.90;7.17;;;3.40;99.90;;;;;;5124638;28;20234;-80
2021/11/29 06:26:45;;;;;;;13.77;7.17;;;3.40;99.90;;;;;;5127975;28;20201;-80
2021/11/29 06:29:11;;;;;;;14.70;7.93;;;3.40;99.90;;;;;;5128639;28;20230;-81
2021/11/29 06:31:38;;;;;;;13.80;9.97;;;3.40;99.90;;;;;;5127378;28;20409;-80
2021/11/29 06:34:04;;;;;;;13.20;9.20;;;3.50;99.90;;;;;;5109264;28;20534;-80
2021/11/29 06:36:31;;;;;;;9.80;7.07;;;3.50;99.90;;;;;;5085996;28;20436;-79
2021/11/29 06:38:59;;;;;;;11.40;8.50;;;3.40;99.90;;;;;;5085749;28;20408;-80
2021/11/29 06:41:26;;;;;;;18.40;9.03;;;3.40;99.90;;;;;;5085236;28;20564;-80
2021/11/29 06:43:52;;;;;;;14.87;9.43;;;3.40;99.90;;;;;;5085720;28;20433;-81
2021/11/29 06:46:19;;;;;;;12.03;8.10;;;3.40;99.90;;;;;;5085723;28;20453;-81
2021/11/29 06:48:45;;;;;;;16.10;8.97;;;3.30;99.90;;;;;;5086865;28;20473;-80
2021/11/29 06:51:11;;;;;;;10.20;7.30;;;3.30;99.90;;;;;;5086122;28;20404;-80
2021/11/29 06:53:37;;;;;;;17.60;7.47;;;3.30;99.90;;;;;;5068938;28;20443;-80
2021/11/29 06:56:04;;;;;;;9.20;7.00;;;3.30;99.90;;;;;;5072422;28;20405;-81
2021/11/29 06:58:30;;;;;;;11.10;8.17;;;3.30;99.90;;;;;;5062070;28;20451;-80
2021/11/29 07:00:57;;;;;;;16.17;8.27;;;3.30;99.90;;;;;;5076508;28;20393;-80
2021/11/29 07:03:25;;;;;;;9.93;7.03;;;3.30;99.90;;;;;;5082105;28;20396;-80
2021/11/29 07:05:51;;;;;;;12.50;8.40;;;2.70;99.90;;;;;;5075169;28;20405;-80
2021/11/29 07:08:18;;;;;;;10.40;6.90;;;2.60;99.90;;;;;;5114326;28;20417;-80
2021/11/29 07:10:45;;;;;;;8.67;6.47;;;2.30;99.90;;;;;;5123828;28;20420;-80
2021/11/29 07:13:13;;;;;;;8.70;6.90;;;2.20;99.90;;;;;;5121574;28;20455;-80
2021/11/29 07:15:41;;;;;;;20.80;7.83;;;2.30;99.90;;;;;;5118738;28;20402;-80
2021/11/29 07:18:08;;;;;;;12.20;7.70;;;2.50;99.90;;;;;;5124652;28;20469;-80
2021/11/29 07:20:34;;;;;;;9.67;6.80;;;2.50;99.90;;;;;;5118321;28;20448;-80
2021/11/29 07:23:00;;;;;;;8.60;4.83;;;2.40;99.90;;;;;;5116918;28;20554;-79
2021/11/29 07:25:26;;;;;;;9.03;6.80;;;2.40;99.90;;;;;;5114805;28;20436;-79
2021/11/29 07:27:53;;;;;;;9.40;5.67;;;2.20;99.90;;;;;;5117720;28;20408;-80
2021/11/29 07:30:22;;;;;;;11.37;7.70;;;2.40;99.90;;;;;;5117594;28;20435;-80
2021/11/29 07:32:49;;;;;;;13.43;7.10;;;2.70;99.90;;;;;;5122065;28;20457;-79
2021/11/29 07:35:16;;;;;;;10.60;6.53;;;2.80;99.90;;;;;;5102652;28;20498;-79
2021/11/29 07:37:42;;;;;;;12.83;8.10;;;2.70;99.90;;;;;;5113799;28;20776;-80
2021/11/29 07:40:09;;;;;;;12.80;8.37;;;2.80;99.90;;;;;;5122179;28;20213;-81
2021/11/29 07:42:36;;;;;;;11.67;6.50;;;3.00;99.90;;;;;;5094585;28;20420;-80
2021/11/29 07:45:04;;;;;;;8.97;7.70;;;3.20;99.90;;;;;;5126040;28;20426;-81
2021/11/29 07:47:30;;;;;;;10.63;7.87;;;3.00;99.90;;;;;;5118331;28;20463;-80
2021/11/29 07:49:56;;;;;;;15.93;8.57;;;3.10;99.90;;;;;;5118853;28;20406;-80
2021/11/29 07:52:22;;;;;;;18.57;8.57;;;3.20;99.90;;;;;;5124635;28;20230;-80
2021/11/29 07:54:48;;;;;;;13.97;8.13;;;3.40;99.90;;;;;;5121930;28;20929;-82
2021/11/29 07:57:16;;;;;;;20.57;9.63;;;3.40;99.90;;;;;;5109007;28;20898;-79
2021/11/29 07:59:43;;;;;;;27.43;15.80;;;3.20;99.90;;;;;;5095104;28;20433;-80
2021/11/29 08:02:14;;;;;;;16.30;9.33;;;3.30;99.90;;;;;;5119043;28;20430;-79
2021/11/29 08:04:41;;;;;;;15.07;9.30;;;3.30;99.90;;;;;;5118633;28;20424;-79
2021/11/29 08:07:08;;;;;;;11.37;8.50;;;3.40;99.90;;;;;;5081773;28;20419;-80
2021/11/29 08:09:34;;;;;;;12.77;8.57;;;3.50;99.90;;;;;;5103228;28;20392;-81
2021/11/29 08:11:59;;;;;;;13.93;7.93;;;3.50;99.90;;;;;;5122842;28;20500;-81
2021/11/29 08:14:25;;;;;;;11.80;9.07;;;3.30;99.90;;;;;;5109216;28;20434;-81
2021/11/29 08:16:51;;;;;;;18.27;8.93;;;3.40;99.90;;;;;;5120396;28;20178;-80
2021/11/29 08:19:17;;;;;;;19.47;9.73;;;3.30;99.90;;;;;;5120091;28;20170;-81
2021/11/29 08:21:43;;;;;;;10.20;7.10;;;3.10;99.90;;;;;;5124109;28;20753;-79
2021/11/29 08:24:10;;;;;;;10.20;6.93;;;3.40;99.90;;;;;;5103746;28;20196;-80
2021/11/29 08:26:36;;;;;;;11.43;7.17;;;3.20;99.90;;;;;;5126254;28;20391;-80
2021/11/29 08:29:02;;;;;;;11.37;8.67;;;3.50;99.90;;;;;;5120437;28;20393;-80
2021/11/29 08:31:28;;;;;;;11.83;9.33;;;3.70;99.90;;;;;;5118595;28;20403;-80
2021/11/29 08:33:54;;;;;;;12.10;6.90;;;3.40;99.90;;;;;;5122577;28;20455;-79
2021/11/29 08:36:20;;;;;;;9.50;6.27;;;3.70;99.90;;;;;;5121794;28;20423;-80
2021/11/29 08:38:45;;;;;;;13.27;8.27;;;3.80;99.90;;;;;;5119674;27;20193;-80
2021/11/29 08:41:11;;;;;;;9.70;6.07;;;3.90;99.90;;;;;;5126506;27;20174;-80
2021/11/29 08:43:38;;;;;;;13.40;7.97;;;4.00;99.90;;;;;;5121970;27;20186;-79
2021/11/29 08:46:24;;;;;;;11.10;7.40;;;4.10;99.90;;;;;;5121319;27;20269;-80
2021/11/29 08:48:51;;;;;;;12.63;7.10;;;4.00;99.90;;;;;;5059397;28;20983;-80
2021/11/29 08:51:17;;;;;;;15.50;9.00;;;3.80;99.90;;;;;;5074645;28;20420;-80
2021/11/29 08:53:44;;;;;;;12.60;6.13;;;4.10;99.90;;;;;;5080932;28;20522;-80
2021/11/29 08:56:11;;;;;;;12.50;7.90;;;4.10;99.90;;;;;;5021348;28;20877;-80
2021/11/29 08:58:37;;;;;;;9.70;7.20;;;4.20;99.90;;;;;;5024439;28;20403;-81
2021/11/29 09:01:04;;;;;;;6.03;5.40;;;4.10;99.90;;;;;;5021444;28;20426;-80
2021/11/29 09:03:34;;;;;;;12.60;7.23;;;4.20;99.90;;;;;;5019184;28;20563;-80
2021/11/29 09:06:00;;;;;;;10.53;7.10;;;4.30;99.90;;;;;;4998374;28;20447;-80
2021/11/29 09:08:27;;;;;;;11.07;5.83;;;4.30;99.90;;;;;;5020516;28;20508;-81
2021/11/29 09:10:54;;;;;;;11.87;7.00;;;4.40;99.90;;;;;;5017015;28;20422;-80
2021/11/29 09:13:20;;;;;;;10.73;7.07;;;4.40;99.90;;;;;;5009996;28;20463;-80
2021/11/29 09:15:47;;;;;;;12.60;8.53;;;4.30;99.90;;;;;;5022958;28;20419;-81
2021/11/29 09:18:14;;;;;;;7.30;6.10;;;4.50;99.90;;;;;;5026095;28;20720;-79
2021/11/29 09:20:41;;;;;;;31.73;15.40;;;4.50;99.90;;;;;;5051204;28;20426;-81
2021/11/29 09:23:09;;;;;;;8.53;6.60;;;4.50;99.90;;;;;;5058348;28;20665;-81
2021/11/29 09:25:41;;;;;;;6.63;5.43;;;4.60;99.90;;;;;;5059569;28;20439;-81
2021/11/29 09:28:11;;;;;;;10.77;6.00;;;4.70;99.90;;;;;;5106669;27;20498;-81
2021/11/29 09:30:37;;;;;;;10.00;6.80;;;4.70;99.90;;;;;;5121182;28;20473;-81
2021/11/29 09:33:04;;;;;;;9.27;6.00;;;4.70;99.90;;;;;;5123250;28;20442;-81
2021/11/29 09:35:30;;;;;;;9.53;5.80;;;4.80;99.90;;;;;;5131030;27;20420;-80
2021/11/29 09:37:57;;;;;;;10.60;5.40;;;4.80;99.90;;;;;;5087277;28;20412;-81
2021/11/29 09:40:27;;;;;;;9.90;5.80;;;4.90;99.90;;;;;;5127693;27;20181;-81
2021/11/29 09:42:54;;;;;;;10.83;5.80;;;4.50;99.90;;;;;;5120221;28;20420;-81
2021/11/29 09:45:22;;;;;;;9.43;5.87;;;4.70;99.90;;;;;;5125994;27;20402;-80
2021/11/29 09:47:48;;;;;;;5.70;5.17;;;4.80;99.90;;;;;;5105142;28;20854;-80
2021/11/29 09:50:15;;;;;;;9.37;5.73;;;4.90;99.90;;;;;;5049412;28;20502;-80
2021/11/29 09:52:41;;;;;;;7.50;5.23;;;4.90;99.90;;;;;;5055555;28;20405;-80
2021/11/29 09:55:10;;;;;;;7.30;5.10;;;4.90;99.90;;;;;;5065754;28;20464;-80
2021/11/29 09:57:40;;;;;;;7.53;4.27;;;5.00;99.90;;;;;;5065412;28;20404;-80
2021/11/29 10:00:10;;;;;;;5.63;4.83;;;5.30;99.90;;;;;;5067207;28;20444;-80
2021/11/29 10:02:36;;;;;;;11.00;5.13;;;5.60;99.90;;;;;;5059730;28;20976;-80
2021/11/29 10:05:03;;;;;;;6.70;4.63;;;5.80;99.90;;;;;;5079837;28;20397;-79
2021/11/29 10:07:36;;;;;;;5.90;4.73;;;5.80;99.90;;;;;;5069464;28;20414;-80
2021/11/29 10:10:28;;;;;;;7.97;5.80;;;5.70;99.90;;;;;;5069204;28;20397;-80
2021/11/29 10:13:03;;;;;;;7.70;5.60;;;5.80;99.90;;;;;;5021323;28;20555;-79
2021/11/29 10:15:33;;;;;;;6.63;5.30;;;5.60;99.90;;;;;;5043587;28;20442;-79
2021/11/29 10:18:11;;;;;;;4.93;3.77;;;5.70;99.90;;;;;;5047393;28;20540;-79
2021/11/29 10:20:55;;;;;;;5.13;4.60;;;5.20;99.90;;;;;;5060785;28;20402;-80
2021/11/29 10:23:32;;;;;;;6.03;4.43;;;5.10;99.90;;;;;;5123245;27;20411;-80
2021/11/29 10:25:59;;;;;;;7.20;4.60;;;5.10;99.90;;;;;;5078670;28;20966;-79
2021/11/29 10:28:33;;;;;;;11.40;5.30;;;5.20;99.90;;;;;;5103337;28;20453;-80
2021/11/29 10:31:09;;;;;;;6.73;4.40;;;5.20;99.90;;;;;;5059864;28;20389;-79
2021/11/29 10:33:54;;;;;;;10.53;5.57;;;5.10;99.90;;;;;;5043108;28;20485;-80
2021/11/29 10:36:23;;;;;;;6.50;4.07;;;5.10;99.90;;;;;;5073599;28;20404;-80
2021/11/29 10:38:53;;;;;;;4.60;4.20;;;5.00;99.90;;;;;;5051949;28;20417;-80
2021/11/29 10:41:23;;;;;;;4.17;3.80;;;4.80;99.90;;;;;;5055966;28;20415;-81
2021/11/29 10:43:50;;;;;;;6.63;4.87;;;4.90;99.90;;;;;;5069025;28;20450;-81
2021/11/29 10:46:21;;;;;;;4.73;4.03;;;4.70;99.90;;;;;;5048692;28;20440;-80
2021/11/29 10:48:48;;;;;;;9.90;4.27;;;4.50;99.90;;;;;;5054283;28;21043;-80
2021/11/29 10:51:17;;;;;;;9.40;5.17;;;4.70;99.90;;;;;;5057321;28;20434;-80
2021/11/29 10:53:46;;;;;;;5.80;3.90;;;4.70;99.90;;;;;;5053686;28;20540;-80
2021/11/29 10:56:12;;;;;;;6.50;4.60;;;4.80;99.90;;;;;;5044435;28;20936;-80
2021/11/29 10:58:42;;;;;;;7.70;4.77;;;4.90;99.90;;;;;;5035401;28;20395;-80
2021/11/29 11:01:09;;;;;;;4.07;3.53;;;4.70;99.90;;;;;;5065729;28;20243;-80
2021/11/29 11:03:53;;;;;;;5.00;3.97;;;4.80;99.90;;;;;;5057395;28;20404;-81
2021/11/29 11:06:36;;;;;;;4.73;4.10;;;4.50;99.90;;;;;;5080939;28;20392;-80
2021/11/29 11:09:10;;;;;;;4.97;4.10;;;4.50;99.90;;;;;;5082817;28;20447;-80
2021/11/29 11:11:43;;;;;;;5.80;4.40;;;4.60;99.90;;;;;;5082998;28;20429;-81
2021/11/29 11:14:14;;;;;;;10.73;5.30;;;4.70;99.90;;;;;;5088355;28;20459;-81
2021/11/29 11:16:47;;;;;;;7.00;4.70;;;4.60;99.90;;;;;;5120731;27;20410;-81
2021/11/29 11:19:24;;;;;;;7.67;4.60;;;4.80;99.90;;;;;;5119512;27;20403;-81
2021/11/29 11:21:52;;;;;;;4.23;3.53;;;4.80;99.90;;;;;;5122441;28;20442;-82
2021/11/29 11:24:21;;;;;;;8.37;4.97;;;4.80;99.90;;;;;;5116586;28;20411;-80
2021/11/29 11:26:50;;;;;;;11.00;4.83;;;4.90;99.90;;;;;;5121561;27;20412;-81
2021/11/29 11:29:32;;;;;;;5.10;3.60;;;4.80;99.90;;;;;;5080769;28;20414;-80
2021/11/29 11:32:15;;;;;;;3.67;3.10;;;4.60;99.90;;;;;;5121846;28;20394;-81
2021/11/29 11:34:44;;;;;;;6.20;4.17;;;4.60;99.90;;;;;;5121145;28;20423;-80
2021/11/29 11:37:11;;;;;;;4.60;3.40;;;4.60;99.90;;;;;;5123409;28;20383;-80
2021/11/29 11:39:40;;;;;;;5.97;3.23;;;4.60;99.90;;;;;;5124918;28;20406;-81
2021/11/29 11:42:07;;;;;;;8.63;3.90;;;4.50;99.90;;;;;;5123887;28;20390;-80
2021/11/29 11:44:36;;;;;;;13.63;3.97;;;4.50;99.90;;;;;;5132680;28;20402;-81
2021/11/29 11:47:06;;;;;;;6.43;4.40;;;4.30;99.90;;;;;;5094544;28;20416;-80
2021/11/29 11:49:37;;;;;;;8.43;5.40;;;4.30;99.90;;;;;;5128985;28;20464;-80
2021/11/29 11:52:06;;;;;;;9.40;5.83;;;4.30;99.90;;;;;;5127792;28;20428;-80
2021/11/29 11:54:32;;;;;;;10.50;5.33;;;4.40;99.90;;;;;;5113134;28;20499;-79
2021/11/29 11:57:01;;;;;;;11.30;3.67;;;4.30;99.90;;;;;;5132286;28;20524;-79
2021/11/29 11:59:34;;;;;;;6.27;4.20;;;4.30;99.90;;;;;;5118759;28;20441;-79
2021/11/29 12:02:04;;;;;;;7.03;3.83;;;4.30;99.90;;;;;;5122108;28;20824;-80
2021/11/29 12:04:31;;;;;;;4.07;3.67;;;4.40;99.90;;;;;;5120391;28;20522;-79
2021/11/29 12:06:58;;;;;;;7.07;4.20;;;4.20;99.90;;;;;;5102580;28;20406;-79
2021/11/29 12:09:31;;;;;;;6.13;3.60;;;4.30;99.90;;;;;;5104275;28;20394;-80
2021/11/29 12:12:04;;;;;;;4.43;3.57;;;4.40;99.90;;;;;;5111421;27;20426;-79
2021/11/29 12:14:33;;;;;;;7.77;4.10;;;4.40;99.90;;;;;;5128175;27;20472;-79
2021/11/29 12:17:16;;;;;;;5.93;3.80;;;4.40;99.90;;;;;;5131357;28;20442;-79
2021/11/29 12:19:43;;;;;;;4.53;4.13;;;4.50;99.90;;;;;;5133069;28;20436;-78
2021/11/29 12:22:31;;;;;;;4.87;3.67;;;4.50;99.90;;;;;;5108263;28;20458;-79
2021/11/29 12:25:16;;;;;;;4.43;3.73;;;4.50;99.90;;;;;;5111218;28;20805;-79
2021/11/29 12:27:45;;;;;;;10.20;4.43;;;4.40;99.90;;;;;;5128606;28;20397;-81
2021/11/29 12:30:32;;;;;;;6.63;3.20;;;4.40;99.90;;;;;;5102973;28;20405;-81
2021/11/29 12:33:02;;;;;;;22.97;5.10;;;4.40;99.90;;;;;;5124651;27;20450;-81
2021/11/29 12:35:31;;;;;;;7.60;4.33;;;4.30;99.90;;;;;;5123258;27;20419;-80
2021/11/29 12:38:03;;;;;;;4.10;3.43;;;4.40;99.90;;;;;;5116609;27;20731;-81
2021/11/29 12:40:41;;;;;;;4.90;4.03;;;4.30;99.90;;;;;;5121870;27;20488;-81
2021/11/29 12:43:07;;;;;;;7.43;4.03;;;4.20;99.90;;;;;;5117908;27;20414;-80
2021/11/29 12:45:34;;;;;;;6.63;5.13;;;4.20;99.90;;;;;;5122111;28;20420;-81
2021/11/29 12:48:13;;;;;;;7.63;4.60;;;4.30;99.90;;;;;;5127510;28;20439;-81
2021/11/29 12:50:55;;;;;;;7.57;6.00;;;4.10;99.90;;;;;;5128630;28;20481;-81
2021/11/29 12:53:36;;;;;;;9.07;4.40;;;4.20;99.90;;;;;;5128277;28;20438;-80